sensor_id;sensor_type;location;lat;lon;timestamp;temperature;humidity
7720;DHT22;3902;49.474;8.616;2024-03-23T00:53:28;13.10;99.90
7720;DHT22;3902;49.474;8.616;2024-03-23T00:55:53;13.10;99.90
7720;DHT22;3902;49.474;8.616;2024-03-23T00:58:19;13.10;99.90
7720;DHT22;3902;49.474;8.616;2024-03-23T01:00:45;13.10;99.90
7720;DHT22;3902;49.474;8.616;2024-03-23T01:03:10;13.10;99.90
7720;DHT22;3902;49.474;8.616;2024-03-23T01:05:36;13.00;99.90
7720;DHT22;3902;49.474;8.616;2024-03-23T01:08:01;13.00;99.90
7720;DHT22;3902;49.474;8.616;2024-03-23T01:10:27;13.00;99.90
7720;DHT22;3902;49.474;8.616;2024-03-23T01:12:53;13.00;99.90
7720;DHT22;3902;49.474;8.616;2024-03-23T01:15:18;13.00;99.90
7720;DHT22;3902;49.474;8.616;2024-03-23T01:17:44;13.00;99.90
7720;DHT22;3902;49.474;8.616;2024-03-23T01:20:09;13.00;99.90
7720;DHT22;3902;49.474;8.616;2024-03-23T01:22:35;13.00;99.90
7720;DHT22;3902;49.474;8.616;2024-03-23T01:25:01;13.00;99.90
7720;DHT22;3902;49.474;8.616;2024-03-23T01:27:26;13.00;99.90
7720;DHT22;3902;49.474;8.616;2024-03-23T01:29:52;13.00;99.90
7720;DHT22;3902;49.474;8.616;2024-03-23T01:32:18;13.10;99.90
7720;DHT22;3902;49.474;8.616;2024-03-23T01:34:44;13.10;99.90
7720;DHT22;3902;49.474;8.616;2024-03-23T01:37:09;13.10;99.90
7720;DHT22;3902;49.474;8.616;2024-03-23T01:39:35;13.10;99.90
7720;DHT22;3902;49.474;8.616;2024-03-23T01:42:00;13.20;99.90
7720;DHT22;3902;49.474;8.616;2024-03-23T01:44:26;13.20;99.90
7720;DHT22;3902;49.474;8.616;2024-03-23T01:46:52;13.20;99.90
7720;DHT22;3902;49.474;8.616;2024-03-23T01:49:18;13.20;99.90
7720;DHT22;3902;49.474;8.616;2024-03-23T01:51:44;13.20;99.90
7720;DHT22;3902;49.474;8.616;2024-03-23T01:54:10;13.20;99.90
7720;DHT22;3902;49.474;8.616;2024-03-23T01:56:36;13.20;99.90
7720;DHT22;3902;49.474;8.616;2024-03-23T01:59:05;13.20;99.90
7720;DHT22;3902;49.474;8.616;2024-03-23T02:01:32;13.20;99.90
7720;DHT22;3902;49.474;8.616;2024-03-23T02:03:57;13.30;99.90
7720;DHT22;3902;49.474;8.616;2024-03-23T02:06:24;13.30;99.90
7720;DHT22;3902;49.474;8.616;2024-03-23T02:08:50;13.30;99.90
7720;DHT22;3902;49.474;8.616;2024-03-23T02:11:16;13.30;99.90
7720;DHT22;3902;49.474;8.616;2024-03-23T02:13:42;13.30;99.90
7720;DHT22;3902;49.474;8.616;2024-03-23T02:16:07;13.30;99.90
7720;DHT22;3902;49.474;8.616;2024-03-23T02:18:33;13.30;99.90
7720;DHT22;3902;49.474;8.616;2024-03-23T02:20:59;13.30;99.90
7720;DHT22;3902;49.474;8.616;2024-03-23T02:23:24;13.30;99.90
7720;DHT22;3902;49.474;8.616;2024-03-23T02:25:50;13.30;99.90
7720;DHT22;3902;49.474;8.616;2024-03-23T02:28:16;13.30;99.90
7720;DHT22;3902;49.474;8.616;2024-03-23T02:30:42;13.30;99.90
7720;DHT22;3902;49.474;8.616;2024-03-23T02:33:08;13.30;99.90
7720;DHT22;3902;49.474;8.616;2024-03-23T02:35:34;13.30;99.90
7720;DHT22;3902;49.474;8.616;2024-03-23T02:37:59;13.30;99.90
7720;DHT22;3902;49.474;8.616;2024-03-23T02:40:25;13.30;99.90
7720;DHT22;3902;49.474;8.616;2024-03-23T02:42:51;13.30;99.90
7720;DHT22;3902;49.474;8.616;2024-03-23T02:45:17;13.30;99.90
7720;DHT22;3902;49.474;8.616;2024-03-23T02:47:43;13.30;99.90
7720;DHT22;3902;49.474;8.616;2024-03-23T02:50:08;13.30;99.90
7720;DHT22;3902;49.474;8.616;2024-03-23T02:52:35;13.30;99.90
7720;DHT22;3902;49.474;8.616;2024-03-23T02:55:00;13.30;99.90
7720;DHT22;3902;49.474;8.616;2024-03-23T02:57:27;13.40;99.90
7720;DHT22;3902;49.474;8.616;2024-03-23T02:59:53;13.40;99.90
7720;DHT22;3902;49.474;8.616;2024-03-23T03:02:18;13.40;99.90
7720;DHT22;3902;49.474;8.616;2024-03-23T03:04:44;13.40;99.90
7720;DHT22;3902;49.474;8.616;2024-03-23T03:07:09;13.30;99.90
7720;DHT22;3902;49.474;8.616;2024-03-23T03:09:35;13.30;99.90
7720;DHT22;3902;49.474;8.616;2024-03-23T03:12:04;13.30;99.90
7720;DHT22;3902;49.474;8.616;2024-03-23T03:14:29;13.30;99.90
7720;DHT22;3902;49.474;8.616;2024-03-23T03:16:55;13.30;99.90
7720;DHT22;3902;49.474;8.616;2024-03-23T03:19:20;13.30;99.90
7720;DHT22;3902;49.474;8.616;2024-03-23T03:21:46;13.30;99.90
7720;DHT22;3902;49.474;8.616;2024-03-23T03:24:13;13.30;99.90
7720;DHT22;3902;49.474;8.616;2024-03-23T03:26:38;13.20;99.90
7720;DHT22;3902;49.474;8.616;2024-03-23T03:29:04;13.20;99.90
7720;DHT22;3902;49.474;8.616;2024-03-23T03:31:29;13.20;99.90
7720;DHT22;3902;49.474;8.616;2024-03-23T03:33:55;13.20;99.90
7720;DHT22;3902;49.474;8.616;2024-03-23T03:36:20;13.20;99.90
7720;DHT22;3902;49.474;8.616;2024-03-23T03:38:46;13.20;99.90
7720;DHT22;3902;49.474;8.616;2024-03-23T03:41:11;13.10;99.90
7720;DHT22;3902;49.474;8.616;2024-03-23T03:43:37;13.20;99.90
7720;DHT22;3902;49.474;8.616;2024-03-23T03:46:03;13.20;99.90
7720;DHT22;3902;49.474;8.616;2024-03-23T03:48:29;13.20;99.90
7720;DHT22;3902;49.474;8.616;2024-03-23T03:50:55;13.20;99.90
7720;DHT22;3902;49.474;8.616;2024-03-23T03:53:20;13.20;99.90
7720;DHT22;3902;49.474;8.616;2024-03-23T03:55:46;13.20;99.90
7720;DHT22;3902;49.474;8.616;2024-03-23T03:58:12;13.10;99.90
7720;DHT22;3902;49.474;8.616;2024-03-23T04:00:37;13.20;99.90
7720;DHT22;3902;49.474;8.616;2024-03-23T04:03:03;13.10;99.90
7720;DHT22;3902;49.474;8.616;2024-03-23T04:05:29;13.10;99.90
7720;DHT22;3902;49.474;8.616;2024-03-23T04:07:54;13.20;99.90
7720;DHT22;3902;49.474;8.616;2024-03-23T04:10:20;13.10;99.90
7720;DHT22;3902;49.474;8.616;2024-03-23T04:12:46;13.10;99.90
7720;DHT22;3902;49.474;8.616;2024-03-23T04:15:12;13.10;99.90
7720;DHT22;3902;49.474;8.616;2024-03-23T04:17:38;13.10;99.90
7720;DHT22;3902;49.474;8.616;2024-03-23T04:20:03;13.10;99.90
7720;DHT22;3902;49.474;8.616;2024-03-23T04:22:34;13.20;99.90
7720;DHT22;3902;49.474;8.616;2024-03-23T04:25:00;13.20;99.90
7720;DHT22;3902;49.474;8.616;2024-03-23T04:27:29;13.20;99.90
7720;DHT22;3902;49.474;8.616;2024-03-23T04:29:54;13.20;99.90
7720;DHT22;3902;49.474;8.616;2024-03-23T04:32:20;13.20;99.90
7720;DHT22;3902;49.474;8.616;2024-03-23T04:34:45;13.20;99.90
7720;DHT22;3902;49.474;8.616;2024-03-23T04:37:11;13.20;99.90
7720;DHT22;3902;49.474;8.616;2024-03-23T04:39:37;13.20;99.90
7720;DHT22;3902;49.474;8.616;2024-03-23T04:42:03;13.20;99.90
7720;DHT22;3902;49.474;8.616;2024-03-23T04:44:29;13.10;99.90
7720;DHT22;3902;49.474;8.616;2024-03-23T04:46:54;13.10;99.90
7720;DHT22;3902;49.474;8.616;2024-03-23T04:49:20;13.00;99.90
7720;DHT22;3902;49.474;8.616;2024-03-23T04:51:46;13.00;99.90
7720;DHT22;3902;49.474;8.616;2024-03-23T04:54:12;12.90;99.90
7720;DHT22;3902;49.474;8.616;2024-03-23T04:56:38;12.90;99.90
7720;DHT22;3902;49.474;8.616;2024-03-23T04:59:03;12.90;99.90
7720;DHT22;3902;49.474;8.616;2024-03-23T05:01:31;12.90;99.90
7720;DHT22;3902;49.474;8.616;2024-03-23T05:03:57;12.80;99.90
7720;DHT22;3902;49.474;8.616;2024-03-23T05:06:23;12.80;99.90
7720;DHT22;3902;49.474;8.616;2024-03-23T05:08:48;12.80;99.90
7720;DHT22;3902;49.474;8.616;2024-03-23T05:11:14;12.80;99.90
7720;DHT22;3902;49.474;8.616;2024-03-23T05:13:41;12.80;99.90
7720;DHT22;3902;49.474;8.616;2024-03-23T05:16:06;12.80;99.90
7720;DHT22;3902;49.474;8.616;2024-03-23T05:18:32;12.70;99.90
7720;DHT22;3902;49.474;8.616;2024-03-23T05:20:58;12.60;99.90
7720;DHT22;3902;49.474;8.616;2024-03-23T05:23:25;12.60;99.90
7720;DHT22;3902;49.474;8.616;2024-03-23T05:25:50;12.50;99.90
7720;DHT22;3902;49.474;8.616;2024-03-23T05:28:17;12.40;99.90
7720;DHT22;3902;49.474;8.616;2024-03-23T05:30:43;12.30;99.90
7720;DHT22;3902;49.474;8.616;2024-03-23T05:33:08;12.30;99.90
7720;DHT22;3902;49.474;8.616;2024-03-23T05:35:34;12.20;99.90
7720;DHT22;3902;49.474;8.616;2024-03-23T05:37:59;12.10;99.90
7720;DHT22;3902;49.474;8.616;2024-03-23T05:40:27;11.90;99.90
7720;DHT22;3902;49.474;8.616;2024-03-23T05:42:53;11.80;99.90
7720;DHT22;3902;49.474;8.616;2024-03-23T05:45:21;11.40;99.90
7720;DHT22;3902;49.474;8.616;2024-03-23T05:47:48;11.20;99.90
7720;DHT22;3902;49.474;8.616;2024-03-23T05:50:13;11.30;99.90
7720;DHT22;3902;49.474;8.616;2024-03-23T05:52:39;11.20;99.90
7720;DHT22;3902;49.474;8.616;2024-03-23T05:55:05;11.10;99.90
7720;DHT22;3902;49.474;8.616;2024-03-23T05:57:31;11.20;99.90
7720;DHT22;3902;49.474;8.616;2024-03-23T05:59:57;11.30;99.90
7720;DHT22;3902;49.474;8.616;2024-03-23T06:02:23;11.10;99.90
7720;DHT22;3902;49.474;8.616;2024-03-23T06:04:49;11.00;99.90
7720;DHT22;3902;49.474;8.616;2024-03-23T06:07:14;10.80;99.90
7720;DHT22;3902;49.474;8.616;2024-03-23T06:09:43;11.00;99.90
7720;DHT22;3902;49.474;8.616;2024-03-23T06:12:08;11.00;99.90
7720;DHT22;3902;49.474;8.616;2024-03-23T06:14:34;10.90;99.90
7720;DHT22;3902;49.474;8.616;2024-03-23T06:17:00;10.90;99.90
7720;DHT22;3902;49.474;8.616;2024-03-23T06:19:27;11.00;99.90
7720;DHT22;3902;49.474;8.616;2024-03-23T06:21:53;11.00;99.90
7720;DHT22;3902;49.474;8.616;2024-03-23T06:24:22;11.00;99.90
7720;DHT22;3902;49.474;8.616;2024-03-23T06:26:48;11.00;99.90
7720;DHT22;3902;49.474;8.616;2024-03-23T06:29:13;11.00;99.90
7720;DHT22;3902;49.474;8.616;2024-03-23T06:31:39;10.90;99.90
7720;DHT22;3902;49.474;8.616;2024-03-23T06:34:05;11.00;99.90
7720;DHT22;3902;49.474;8.616;2024-03-23T06:36:31;11.00;99.90
7720;DHT22;3902;49.474;8.616;2024-03-23T06:38:57;10.80;99.90
7720;DHT22;3902;49.474;8.616;2024-03-23T06:41:23;10.80;99.90
7720;DHT22;3902;49.474;8.616;2024-03-23T06:43:48;10.80;99.90
7720;DHT22;3902;49.474;8.616;2024-03-23T06:46:14;10.80;99.90
7720;DHT22;3902;49.474;8.616;2024-03-23T06:48:39;10.80;99.90
7720;DHT22;3902;49.474;8.616;2024-03-23T06:51:05;10.70;99.90
7720;DHT22;3902;49.474;8.616;2024-03-23T06:53:32;10.80;99.90
7720;DHT22;3902;49.474;8.616;2024-03-23T06:55:57;10.80;99.90
7720;DHT22;3902;49.474;8.616;2024-03-23T06:58:24;10.90;99.90
7720;DHT22;3902;49.474;8.616;2024-03-23T07:00:50;10.90;99.90
7720;DHT22;3902;49.474;8.616;2024-03-23T07:03:16;10.90;99.90
7720;DHT22;3902;49.474;8.616;2024-03-23T07:05:42;10.90;99.90
7720;DHT22;3902;49.474;8.616;2024-03-23T07:08:08;11.00;99.90
7720;DHT22;3902;49.474;8.616;2024-03-23T07:10:33;10.90;99.90
7720;DHT22;3902;49.474;8.616;2024-03-23T07:12:59;10.90;99.90
7720;DHT22;3902;49.474;8.616;2024-03-23T07:15:24;10.90;99.90
7720;DHT22;3902;49.474;8.616;2024-03-23T07:17:50;10.90;99.90
7720;DHT22;3902;49.474;8.616;2024-03-23T07:20:15;11.00;99.90
7720;DHT22;3902;49.474;8.616;2024-03-23T07:22:41;10.80;99.90
7720;DHT22;3902;49.474;8.616;2024-03-23T07:25:07;10.70;99.90
7720;DHT22;3902;49.474;8.616;2024-03-23T07:27:32;10.60;99.90
7720;DHT22;3902;49.474;8.616;2024-03-23T07:29:59;10.60;99.90
7720;DHT22;3902;49.474;8.616;2024-03-23T07:32:26;10.40;99.90
7720;DHT22;3902;49.474;8.616;2024-03-23T07:34:52;10.40;99.90
7720;DHT22;3902;49.474;8.616;2024-03-23T07:37:17;10.30;99.90
7720;DHT22;3902;49.474;8.616;2024-03-23T07:39:43;10.40;99.90
7720;DHT22;3902;49.474;8.616;2024-03-23T07:42:08;10.60;99.90
7720;DHT22;3902;49.474;8.616;2024-03-23T07:44:34;10.50;99.90
7720;DHT22;3902;49.474;8.616;2024-03-23T07:47:00;10.50;99.90
7720;DHT22;3902;49.474;8.616;2024-03-23T07:49:26;10.50;99.90
7720;DHT22;3902;49.474;8.616;2024-03-23T07:51:52;10.50;99.90
7720;DHT22;3902;49.474;8.616;2024-03-23T07:54:17;10.50;99.90
7720;DHT22;3902;49.474;8.616;2024-03-23T07:56:43;10.40;99.90
7720;DHT22;3902;49.474;8.616;2024-03-23T07:59:08;10.40;99.90
7720;DHT22;3902;49.474;8.616;2024-03-23T08:01:34;10.40;99.90
7720;DHT22;3902;49.474;8.616;2024-03-23T08:03:59;10.40;99.90
7720;DHT22;3902;49.474;8.616;2024-03-23T08:06:25;10.40;99.90
7720;DHT22;3902;49.474;8.616;2024-03-23T08:08:53;10.30;99.90
7720;DHT22;3902;49.474;8.616;2024-03-23T08:11:28;10.20;99.90
7720;DHT22;3902;49.474;8.616;2024-03-23T08:13:54;10.20;99.90
7720;DHT22;3902;49.474;8.616;2024-03-23T08:16:19;10.30;99.90
7720;DHT22;3902;49.474;8.616;2024-03-23T08:18:45;10.20;99.90
7720;DHT22;3902;49.474;8.616;2024-03-23T08:21:11;10.20;99.90
7720;DHT22;3902;49.474;8.616;2024-03-23T08:23:37;10.10;99.90
7720;DHT22;3902;49.474;8.616;2024-03-23T08:26:11;10.10;99.90
7720;DHT22;3902;49.474;8.616;2024-03-23T08:28:37;10.20;99.90
7720;DHT22;3902;49.474;8.616;2024-03-23T08:31:10;10.30;99.90
7720;DHT22;3902;49.474;8.616;2024-03-23T08:33:36;10.50;99.90
7720;DHT22;3902;49.474;8.616;2024-03-23T08:36:06;10.60;99.90
7720;DHT22;3902;49.474;8.616;2024-03-23T08:38:35;10.60;99.90
7720;DHT22;3902;49.474;8.616;2024-03-23T08:41:07;10.70;99.90
7720;DHT22;3902;49.474;8.616;2024-03-23T08:43:37;10.60;99.90
7720;DHT22;3902;49.474;8.616;2024-03-23T08:46:13;10.70;99.90
7720;DHT22;3902;49.474;8.616;2024-03-23T08:48:41;10.70;99.90
7720;DHT22;3902;49.474;8.616;2024-03-23T08:51:10;10.80;99.90
7720;DHT22;3902;49.474;8.616;2024-03-23T08:53:36;10.90;99.90
7720;DHT22;3902;49.474;8.616;2024-03-23T08:56:03;10.90;99.90
7720;DHT22;3902;49.474;8.616;2024-03-23T08:58:29;11.00;99.90
7720;DHT22;3902;49.474;8.616;2024-03-23T09:00:57;11.00;99.90
7720;DHT22;3902;49.474;8.616;2024-03-23T09:03:28;11.00;99.90
7720;DHT22;3902;49.474;8.616;2024-03-23T09:05:54;11.20;99.90
7720;DHT22;3902;49.474;8.616;2024-03-23T09:08:20;11.30;99.90
7720;DHT22;3902;49.474;8.616;2024-03-23T09:10:47;11.30;99.90
7720;DHT22;3902;49.474;8.616;2024-03-23T09:13:14;11.40;99.90
7720;DHT22;3902;49.474;8.616;2024-03-23T09:16:06;11.60;99.90
7720;DHT22;3902;49.474;8.616;2024-03-23T09:18:33;11.60;99.90
7720;DHT22;3902;49.474;8.616;2024-03-23T09:20:59;11.50;99.90
7720;DHT22;3902;49.474;8.616;2024-03-23T09:23:24;11.60;99.90
7720;DHT22;3902;49.474;8.616;2024-03-23T09:25:50;11.70;99.90
7720;DHT22;3902;49.474;8.616;2024-03-23T09:28:15;11.70;99.90
7720;DHT22;3902;49.474;8.616;2024-03-23T09:30:41;11.70;99.90
7720;DHT22;3902;49.474;8.616;2024-03-23T09:33:10;11.70;99.90
7720;DHT22;3902;49.474;8.616;2024-03-23T09:35:43;11.70;99.90
7720;DHT22;3902;49.474;8.616;2024-03-23T09:38:10;11.60;99.90
7720;DHT22;3902;49.474;8.616;2024-03-23T09:40:40;11.60;99.90
7720;DHT22;3902;49.474;8.616;2024-03-23T09:43:07;11.60;99.90
7720;DHT22;3902;49.474;8.616;2024-03-23T09:45:38;11.60;99.90
7720;DHT22;3902;49.474;8.616;2024-03-23T09:48:04;11.50;99.90
7720;DHT22;3902;49.474;8.616;2024-03-23T09:50:30;11.50;99.90
7720;DHT22;3902;49.474;8.616;2024-03-23T09:52:55;11.60;99.90
7720;DHT22;3902;49.474;8.616;2024-03-23T09:55:21;11.60;99.90
7720;DHT22;3902;49.474;8.616;2024-03-23T09:57:46;11.70;99.90
7720;DHT22;3902;49.474;8.616;2024-03-23T10:00:12;11.70;99.90
7720;DHT22;3902;49.474;8.616;2024-03-23T10:02:38;11.60;99.90
7720;DHT22;3902;49.474;8.616;2024-03-23T10:05:04;11.40;99.90
7720;DHT22;3902;49.474;8.616;2024-03-23T10:07:29;11.20;99.90
7720;DHT22;3902;49.474;8.616;2024-03-23T10:09:55;11.00;99.90
7720;DHT22;3902;49.474;8.616;2024-03-23T10:12:22;11.00;99.90
7720;DHT22;3902;49.474;8.616;2024-03-23T10:14:47;11.10;99.90
7720;DHT22;3902;49.474;8.616;2024-03-23T10:17:17;11.10;99.90
7720;DHT22;3902;49.474;8.616;2024-03-23T10:19:44;11.10;99.90
7720;DHT22;3902;49.474;8.616;2024-03-23T10:22:12;11.20;99.90
7720;DHT22;3902;49.474;8.616;2024-03-23T10:24:38;11.20;99.90
7720;DHT22;3902;49.474;8.616;2024-03-23T10:27:03;11.20;99.90
7720;DHT22;3902;49.474;8.616;2024-03-23T10:29:29;11.30;99.90
7720;DHT22;3902;49.474;8.616;2024-03-23T10:32:07;11.40;99.90
7720;DHT22;3902;49.474;8.616;2024-03-23T10:34:33;11.60;99.90
7720;DHT22;3902;49.474;8.616;2024-03-23T10:37:01;11.70;99.90
7720;DHT22;3902;49.474;8.616;2024-03-23T10:39:28;11.70;99.90
7720;DHT22;3902;49.474;8.616;2024-03-23T10:41:56;11.80;99.90
7720;DHT22;3902;49.474;8.616;2024-03-23T10:44:22;11.90;99.90
7720;DHT22;3902;49.474;8.616;2024-03-23T10:46:52;11.90;99.90
7720;DHT22;3902;49.474;8.616;2024-03-23T10:49:25;12.00;99.90
7720;DHT22;3902;49.474;8.616;2024-03-23T10:51:51;12.10;99.90
7720;DHT22;3902;49.474;8.616;2024-03-23T10:54:17;12.20;99.90
7720;DHT22;3902;49.474;8.616;2024-03-23T10:56:43;12.40;99.90
7720;DHT22;3902;49.474;8.616;2024-03-23T10:59:10;12.70;99.90
7720;DHT22;3902;49.474;8.616;2024-03-23T11:01:54;12.90;99.10
7720;DHT22;3902;49.474;8.616;2024-03-23T11:04:38;13.20;99.40
7720;DHT22;3902;49.474;8.616;2024-03-23T11:09:50;13.20;97.20
7720;DHT22;3902;49.474;8.616;2024-03-23T11:14:52;13.10;97.10
7720;DHT22;3902;49.474;8.616;2024-03-23T11:17:20;13.70;95.90
7720;DHT22;3902;49.474;8.616;2024-03-23T11:19:53;14.50;95.00
7720;DHT22;3902;49.474;8.616;2024-03-23T11:22:42;15.40;93.90
7720;DHT22;3902;49.474;8.616;2024-03-23T11:25:22;16.10;92.00
7720;DHT22;3902;49.474;8.616;2024-03-23T11:27:50;16.70;91.50
7720;DHT22;3902;49.474;8.616;2024-03-23T11:30:35;17.00;89.80
7720;DHT22;3902;49.474;8.616;2024-03-23T11:33:03;17.50;90.30
7720;DHT22;3902;49.474;8.616;2024-03-23T11:35:37;17.10;90.60
7720;DHT22;3902;49.474;8.616;2024-03-23T11:38:11;17.20;90.70
7720;DHT22;3902;49.474;8.616;2024-03-23T11:40:42;17.40;90.70
7720;DHT22;3902;49.474;8.616;2024-03-23T11:43:09;17.00;88.20
7720;DHT22;3902;49.474;8.616;2024-03-23T11:45:38;16.80;88.60
7720;DHT22;3902;49.474;8.616;2024-03-23T11:48:09;16.40;93.20
7720;DHT22;3902;49.474;8.616;2024-03-23T11:50:43;16.20;94.60
7720;DHT22;3902;49.474;8.616;2024-03-23T11:53:18;15.50;95.90
7720;DHT22;3902;49.474;8.616;2024-03-23T11:55:51;14.50;96.40
7720;DHT22;3902;49.474;8.616;2024-03-23T11:58:18;13.90;97.70
7720;DHT22;3902;49.474;8.616;2024-03-23T12:00:51;13.40;99.90
7720;DHT22;3902;49.474;8.616;2024-03-23T12:03:18;12.80;99.90
7720;DHT22;3902;49.474;8.616;2024-03-23T12:05:48;12.40;99.90
7720;DHT22;3902;49.474;8.616;2024-03-23T12:08:25;12.40;99.90
7720;DHT22;3902;49.474;8.616;2024-03-23T12:11:13;12.30;99.90
7720;DHT22;3902;49.474;8.616;2024-03-23T12:13:41;12.30;99.90
7720;DHT22;3902;49.474;8.616;2024-03-23T12:16:18;12.30;99.90
7720;DHT22;3902;49.474;8.616;2024-03-23T12:18:49;12.40;99.90
7720;DHT22;3902;49.474;8.616;2024-03-23T12:21:16;12.40;99.90
7720;DHT22;3902;49.474;8.616;2024-03-23T12:23:43;12.40;99.90
7720;DHT22;3902;49.474;8.616;2024-03-23T12:26:10;12.40;99.90
7720;DHT22;3902;49.474;8.616;2024-03-23T12:28:37;12.40;99.90
7720;DHT22;3902;49.474;8.616;2024-03-23T12:31:03;12.40;99.90
7720;DHT22;3902;49.474;8.616;2024-03-23T12:33:28;12.40;99.90
7720;DHT22;3902;49.474;8.616;2024-03-23T12:35:54;12.50;99.90
7720;DHT22;3902;49.474;8.616;2024-03-23T12:38:19;12.70;99.90
7720;DHT22;3902;49.474;8.616;2024-03-23T12:40:48;12.80;99.90
7720;DHT22;3902;49.474;8.616;2024-03-23T12:43:14;12.80;99.90
7720;DHT22;3902;49.474;8.616;2024-03-23T12:45:40;12.80;99.90
7720;DHT22;3902;49.474;8.616;2024-03-23T12:48:06;12.80;99.90
7720;DHT22;3902;49.474;8.616;2024-03-23T12:50:32;12.90;99.90
7720;DHT22;3902;49.474;8.616;2024-03-23T12:52:58;13.00;99.90
7720;DHT22;3902;49.474;8.616;2024-03-23T12:55:23;13.10;99.90
7720;DHT22;3902;49.474;8.616;2024-03-23T12:57:49;13.20;99.90
7720;DHT22;3902;49.474;8.616;2024-03-23T13:00:15;13.20;99.90
7720;DHT22;3902;49.474;8.616;2024-03-23T13:02:42;13.10;99.90
7720;DHT22;3902;49.474;8.616;2024-03-23T13:05:08;13.00;99.90
7720;DHT22;3902;49.474;8.616;2024-03-23T13:07:34;12.90;99.90
7720;DHT22;3902;49.474;8.616;2024-03-23T13:10:00;12.70;99.90
7720;DHT22;3902;49.474;8.616;2024-03-23T13:12:26;12.00;99.90
7720;DHT22;3902;49.474;8.616;2024-03-23T13:14:51;11.00;99.90
7720;DHT22;3902;49.474;8.616;2024-03-23T13:17:17;10.20;99.90
7720;DHT22;3902;49.474;8.616;2024-03-23T13:19:42;9.80;99.90
7720;DHT22;3902;49.474;8.616;2024-03-23T13:22:08;9.20;99.90
7720;DHT22;3902;49.474;8.616;2024-03-23T13:24:36;9.10;99.90
7720;DHT22;3902;49.474;8.616;2024-03-23T13:27:02;9.00;99.90
7720;DHT22;3902;49.474;8.616;2024-03-23T13:29:28;9.00;99.90
7720;DHT22;3902;49.474;8.616;2024-03-23T13:31:53;9.40;99.90
7720;DHT22;3902;49.474;8.616;2024-03-23T13:34:19;9.50;99.90
7720;DHT22;3902;49.474;8.616;2024-03-23T13:36:46;9.50;99.90
7720;DHT22;3902;49.474;8.616;2024-03-23T13:39:12;9.90;99.90
7720;DHT22;3902;49.474;8.616;2024-03-23T13:41:42;10.30;99.90
7720;DHT22;3902;49.474;8.616;2024-03-23T13:44:08;10.60;99.90
7720;DHT22;3902;49.474;8.616;2024-03-23T13:46:36;10.80;99.90
7720;DHT22;3902;49.474;8.616;2024-03-23T13:49:01;11.20;99.90
7720;DHT22;3902;49.474;8.616;2024-03-23T13:51:27;11.70;99.90
7720;DHT22;3902;49.474;8.616;2024-03-23T13:53:54;12.50;99.90
7720;DHT22;3902;49.474;8.616;2024-03-23T13:56:20;12.80;99.90
7720;DHT22;3902;49.474;8.616;2024-03-23T13:58:46;12.60;99.90
7720;DHT22;3902;49.474;8.616;2024-03-23T14:01:13;12.40;99.90
7720;DHT22;3902;49.474;8.616;2024-03-23T14:03:38;12.20;99.90
7720;DHT22;3902;49.474;8.616;2024-03-23T14:06:04;11.90;99.90
7720;DHT22;3902;49.474;8.616;2024-03-23T14:08:31;11.60;99.90
7720;DHT22;3902;49.474;8.616;2024-03-23T14:10:58;11.40;99.90
7720;DHT22;3902;49.474;8.616;2024-03-23T14:13:24;11.50;99.90
7720;DHT22;3902;49.474;8.616;2024-03-23T14:15:58;11.50;99.90
7720;DHT22;3902;49.474;8.616;2024-03-23T14:18:24;11.30;99.90
7720;DHT22;3902;49.474;8.616;2024-03-23T14:20:51;11.00;99.90
7720;DHT22;3902;49.474;8.616;2024-03-23T14:23:17;10.90;99.90
7720;DHT22;3902;49.474;8.616;2024-03-23T14:25:42;10.80;99.90
7720;DHT22;3902;49.474;8.616;2024-03-23T14:28:08;10.80;99.90
7720;DHT22;3902;49.474;8.616;2024-03-23T14:30:40;10.80;99.90
7720;DHT22;3902;49.474;8.616;2024-03-23T14:33:06;10.80;99.90
7720;DHT22;3902;49.474;8.616;2024-03-23T14:35:32;10.70;99.90
7720;DHT22;3902;49.474;8.616;2024-03-23T14:37:58;10.60;99.90
7720;DHT22;3902;49.474;8.616;2024-03-23T14:40:24;10.50;99.90
7720;DHT22;3902;49.474;8.616;2024-03-23T14:42:53;10.50;99.90
7720;DHT22;3902;49.474;8.616;2024-03-23T14:45:19;10.50;99.90
7720;DHT22;3902;49.474;8.616;2024-03-23T14:47:44;10.40;99.90
7720;DHT22;3902;49.474;8.616;2024-03-23T14:50:10;10.40;99.90
7720;DHT22;3902;49.474;8.616;2024-03-23T14:52:39;10.60;99.90
7720;DHT22;3902;49.474;8.616;2024-03-23T14:55:05;10.50;99.90
7720;DHT22;3902;49.474;8.616;2024-03-23T14:57:30;10.60;99.90
7720;DHT22;3902;49.474;8.616;2024-03-23T14:59:56;10.70;99.90
7720;DHT22;3902;49.474;8.616;2024-03-23T15:02:21;10.80;99.90
7720;DHT22;3902;49.474;8.616;2024-03-23T15:04:47;11.00;99.90
7720;DHT22;3902;49.474;8.616;2024-03-23T15:07:12;11.10;99.90
7720;DHT22;3902;49.474;8.616;2024-03-23T15:09:38;11.20;99.90
7720;DHT22;3902;49.474;8.616;2024-03-23T15:12:04;11.30;99.90
7720;DHT22;3902;49.474;8.616;2024-03-23T15:14:30;11.60;99.90
7720;DHT22;3902;49.474;8.616;2024-03-23T15:16:55;11.70;99.90
7720;DHT22;3902;49.474;8.616;2024-03-23T15:19:21;11.80;99.90
7720;DHT22;3902;49.474;8.616;2024-03-23T15:21:46;11.70;99.90
7720;DHT22;3902;49.474;8.616;2024-03-23T15:24:12;11.70;99.90
7720;DHT22;3902;49.474;8.616;2024-03-23T15:26:38;11.60;99.90
7720;DHT22;3902;49.474;8.616;2024-03-23T15:29:03;11.60;99.90
7720;DHT22;3902;49.474;8.616;2024-03-23T15:31:36;11.50;99.90
7720;DHT22;3902;49.474;8.616;2024-03-23T15:34:02;11.50;99.90
7720;DHT22;3902;49.474;8.616;2024-03-23T15:36:28;11.20;99.90
7720;DHT22;3902;49.474;8.616;2024-03-23T15:38:54;10.90;99.90
7720;DHT22;3902;49.474;8.616;2024-03-23T15:41:20;11.00;99.90
7720;DHT22;3902;49.474;8.616;2024-03-23T15:43:48;11.00;99.90
7720;DHT22;3902;49.474;8.616;2024-03-23T15:46:14;11.00;99.90
7720;DHT22;3902;49.474;8.616;2024-03-23T15:48:40;11.00;99.90
7720;DHT22;3902;49.474;8.616;2024-03-23T15:51:08;11.10;99.90
7720;DHT22;3902;49.474;8.616;2024-03-23T15:53:34;11.10;99.90
7720;DHT22;3902;49.474;8.616;2024-03-23T15:56:01;11.20;99.90
7720;DHT22;3902;49.474;8.616;2024-03-23T15:58:28;11.20;99.90
7720;DHT22;3902;49.474;8.616;2024-03-23T16:00:57;11.20;99.90
7720;DHT22;3902;49.474;8.616;2024-03-23T16:03:23;11.00;99.90
7720;DHT22;3902;49.474;8.616;2024-03-23T16:05:57;10.60;99.90
7720;DHT22;3902;49.474;8.616;2024-03-23T16:08:23;10.30;99.90
7720;DHT22;3902;49.474;8.616;2024-03-23T16:10:49;9.80;99.90
7720;DHT22;3902;49.474;8.616;2024-03-23T16:13:16;9.60;99.90
7720;DHT22;3902;49.474;8.616;2024-03-23T16:15:42;9.60;99.90
7720;DHT22;3902;49.474;8.616;2024-03-23T16:18:07;9.50;99.90
7720;DHT22;3902;49.474;8.616;2024-03-23T16:20:33;9.40;99.90
7720;DHT22;3902;49.474;8.616;2024-03-23T16:23:02;9.30;99.90
7720;DHT22;3902;49.474;8.616;2024-03-23T16:25:28;9.00;99.90
7720;DHT22;3902;49.474;8.616;2024-03-23T16:27:53;9.20;99.90
7720;DHT22;3902;49.474;8.616;2024-03-23T16:30:20;9.40;99.90
7720;DHT22;3902;49.474;8.616;2024-03-23T16:32:46;9.50;99.90
7720;DHT22;3902;49.474;8.616;2024-03-23T16:35:15;9.40;99.90
7720;DHT22;3902;49.474;8.616;2024-03-23T16:37:41;9.40;99.90
7720;DHT22;3902;49.474;8.616;2024-03-23T16:40:07;9.40;99.90
7720;DHT22;3902;49.474;8.616;2024-03-23T16:42:34;9.40;99.90
7720;DHT22;3902;49.474;8.616;2024-03-23T16:45:00;9.30;99.90
7720;DHT22;3902;49.474;8.616;2024-03-23T16:47:26;9.30;99.90
7720;DHT22;3902;49.474;8.616;2024-03-23T16:49:53;9.30;99.90
7720;DHT22;3902;49.474;8.616;2024-03-23T16:52:18;9.30;99.90
7720;DHT22;3902;49.474;8.616;2024-03-23T16:54:44;9.30;99.90
7720;DHT22;3902;49.474;8.616;2024-03-23T16:57:09;9.30;99.90